Pueblo, CO

2:32 PM MST on December 28, 2014 (GMT -0700)
Belmont - Boomer Weather | Change Station
CLOSE
Current Station
Personal Weather Station
Location: Pueblo, CO
Elevation: 4869 ft
Nearby Weather Stations

Elev 4869 ft 38.30 °N, 104.58 °W | Updated 0 second ago

Clear
Clear
47.3 °F
Feels Like 39 °F
N
24.0
Wind Variable Wind from West
Gusts 0.0 mph

Today
High -- | Low -- °F
--% Chance of Precip.
Yesterday
High -- | Low -- °F
Precip. -- in
7:14 AM 4:45 PM
First Quarter, 51% visible
Pressure 29.88 in
Visibility 10.0 miles
Clouds Clear
Windchill 39 °F
Dew Point 9 °F
Humidity 21%
Rainfall 0.00 in
Snow Depth Not available.
UV 2 out of 12
Pollen .10 out of 12
Air Quality Not available.
Flu Activity Not available.
METAR KPUB 282053Z 27018KT 10SM CLR 09/M13 A2981 RMK AO2 PK WND 28032/1955 SLP119 T00891133 56025

More Conditions Fewer Conditions

Pressure 29.88 in
Visibility 10.0 miles
Clouds Clear
Windchill 39 °F
Dew Point 9 °F
Humidity 21%
Rainfall 0.00 in
Snow Depth Not available.
UV 2 out of 12
Pollen .10 out of 12
Air Quality Not available.
Flu Activity Not available.
METAR KPUB 282053Z 27018KT 10SM CLR 09/M13 A2981 RMK AO2 PK WND 28032/1955 SLP119 T00891133 56025

More Conditions Fewer Conditions

10-Day Weather Forecast

Almanac

Astronomy

Dec. 28, 2014 Rise Set
Actual Time
Civil Twilight
Nautical Twilight
Astronomical Twilight
Moon
Length of Visible Light
Length of Day
Tomorrow will be .
, % of the Moon is Illuminated

Today's Extremes

State Highs State Lows

Community

WunderPhotos

Upload Photos

1,781,433 photos uploaded!

WunderBlogs® & News

Nearby

Air Quality

  Air Quality AQ Index Pollutant
Not available.

Snow Depth

Station Depth Elevation

Earthquake Activity

City Distance Mag. Time & Date
Minimum magnitude displayed is 2.5.

Coastal Water Temperatures

Place Temperature

Nearby Weather Stations